This is the latest recevied weather packets stored in our database for station/object IT9CYW-10. If no packets are shown the sender has not sent any weather packets the latest 10 day(s).
| Time | Temp. | Humidity | Pressure | Rain* | Wind** | Luminosity | Snow |
|---|---|---|---|---|---|---|---|
| 1777492682 | 16.67° C | 67% | 995.5 hPa | - | - | 0 W/m² | - |
| 1777491782 | 16.11° C | 69% | 995.9 hPa | - | - | 0 W/m² | - |
| 1777490882 | 16.67° C | 66% | 995.7 hPa | - | - | 0 W/m² | - |
| 1777489982 | 17.22° C | 67% | 995.7 hPa | - | - | 0 W/m² | - |
| 1777489081 | 17.22° C | 67% | 995.5 hPa | - | - | 0 W/m² | - |
| 1777488181 | 17.22° C | 68% | 995.5 hPa | - | - | 0 W/m² | - |
| 1777487281 | 17.78° C | 66% | 995.5 hPa | - | - | 0 W/m² | - |
| 1777486381 | 17.22° C | 66% | 995.4 hPa | - | - | 0 W/m² | - |
| 1777485481 | 17.78° C | 63% | 995.2 hPa | - | - | 1 W/m² | - |
| 1777484580 | 18.33° C | 59% | 995 hPa | - | - | 7 W/m² | - |
| 1777482782 | 20.56° C | 53% | 995 hPa | - | - | 33 W/m² | - |
| 1777481882 | 21.67° C | 50% | 994.7 hPa | - | - | 46 W/m² | - |
| 1777480981 | 21.67° C | 45% | 994.9 hPa | - | - | 78 W/m² | - |
| 1777480081 | 21.67° C | 46% | 995.2 hPa | - | - | 75 W/m² | - |
| 1777479181 | 21.67° C | 43% | 995.4 hPa | - | - | 73 W/m² | - |
| 1777478281 | 21.67° C | 45% | 995.4 hPa | - | - | 109 W/m² | - |
| 1777477381 | 21.67° C | 46% | 995.5 hPa | - | - | 114 W/m² | - |
| 1777476481 | 22.78° C | 49% | 995.5 hPa | - | - | 108 W/m² | - |
| 1777475581 | 23.33° C | 47% | 995.7 hPa | - | - | 134 W/m² | - |
| 1777474680 | 23.89° C | 48% | 995.7 hPa | - | - | 179 W/m² | - |
| 1777473780 | 24.44° C | 48% | 995.5 hPa | - | - | 256 W/m² | - |
| 1777472880 | 23.33° C | 49% | 995.9 hPa | - | - | 534 W/m² | - |
| 1777471980 | 23.89° C | 49% | 996.2 hPa | - | - | 210 W/m² | - |
| 1777471080 | 22.78° C | 51% | 996 hPa | - | - | 714 W/m² | - |
| 1777470180 | 22.22° C | 53% | 996 hPa | - | - | 412 W/m² | - |
* Rain since midnight (hover to see other rain measurements)
** Current wind speed in m/s (hover to see current wind gust speed)